Zima, Russia
Current Conditions -  °F | °C
As of 4:30 AM on Sunday 26 Oct 2014 (Local Time) from UIBB Reporting Station
Broken Clouds Broken Clouds  
Wind Chill:   Ceiling: 20000
Heat Index: 18°   Visibility: 3mi
Dew Point:   Wind: 9mph
Humidity: 68%   Direction: 110°ESE
Pressure: 30.06"   Gusts: NA
Location:  53.93°N, 102.04°E
Report Text: UIBB 252030Z 11004MPS P5000 BKN200 M08/M13 Q1018 NOSIG RMKQFE720/0960 30850540
Loading
Personal Weather Stations






























Interactive Weather Map
Tropical Storm Tracking
New forecast layout! Learn more

10-Day Weather Forecast

Advertisements
Track Severe Weather on mobile